createdAt,value
2018-10-16T00:01:24.772Z,61.90
2018-10-16T00:03:52.769Z,61.90
2018-10-16T00:06:20.642Z,62.00
2018-10-16T00:08:48.581Z,61.90
2018-10-16T00:11:16.501Z,61.70
2018-10-16T00:13:44.360Z,61.80
2018-10-16T00:16:12.369Z,61.70
2018-10-16T00:18:40.254Z,62.30
2018-10-16T00:21:08.138Z,63.20
2018-10-16T00:23:35.948Z,62.20
2018-10-16T00:26:03.916Z,62.30
2018-10-16T00:28:31.769Z,62.50
2018-10-16T00:31:06.365Z,62.50
2018-10-16T00:33:34.238Z,64.10
2018-10-16T00:36:02.074Z,63.30
2018-10-16T00:38:29.937Z,63.10
2018-10-16T00:40:57.773Z,63.20
2018-10-16T00:43:25.624Z,63.30
2018-10-16T00:45:53.529Z,63.30
2018-10-16T00:48:21.424Z,64.50
2018-10-16T00:50:49.273Z,65.00
2018-10-16T00:53:17.186Z,65.50
2018-10-16T00:55:45.029Z,66.30
2018-10-16T00:58:12.964Z,67.60
2018-10-16T01:00:40.852Z,66.80
2018-10-16T01:03:08.784Z,67.40
2018-10-16T01:05:36.679Z,69.30
2018-10-16T01:08:04.685Z,67.40
2018-10-16T01:10:32.600Z,67.90
2018-10-16T01:13:00.435Z,69.00
2018-10-16T01:15:28.325Z,68.20
2018-10-16T01:17:56.201Z,67.80
2018-10-16T01:20:24.093Z,67.90
2018-10-16T01:22:51.994Z,69.50
2018-10-16T01:25:19.898Z,70.80
2018-10-16T01:27:47.729Z,69.60
2018-10-16T01:30:15.577Z,72.20
2018-10-16T01:32:43.473Z,70.60
2018-10-16T01:35:11.988Z,69.60
2018-10-16T01:37:40.284Z,69.10
2018-10-16T01:40:09.137Z,68.90
2018-10-16T01:42:37.105Z,68.50
2018-10-16T01:45:05.397Z,68.10
2018-10-16T01:47:33.533Z,67.80
2018-10-16T01:50:01.449Z,67.60
2018-10-16T01:52:29.312Z,67.50
2018-10-16T01:54:57.189Z,67.80
2018-10-16T01:57:25.057Z,67.20
2018-10-16T01:59:52.996Z,67.00
2018-10-16T02:02:20.848Z,68.50
2018-10-16T02:04:48.754Z,68.10
2018-10-16T02:07:16.629Z,68.00
2018-10-16T02:09:44.539Z,67.80
2018-10-16T02:12:12.437Z,67.90
2018-10-16T02:14:40.328Z,68.70
2018-10-16T02:17:08.218Z,68.30
2018-10-16T02:19:36.109Z,68.50
2018-10-16T02:22:04.173Z,68.60
2018-10-16T02:24:32.010Z,68.80
2018-10-16T02:26:59.977Z,69.90
2018-10-16T02:29:27.963Z,70.30
2018-10-16T02:31:55.905Z,69.70
2018-10-16T02:34:23.793Z,69.70
2018-10-16T02:36:51.709Z,70.10
2018-10-16T02:39:19.616Z,70.10
2018-10-16T02:41:47.503Z,70.60
2018-10-16T02:44:15.385Z,70.60
2018-10-16T02:46:43.305Z,70.80
2018-10-16T02:49:11.170Z,70.30
2018-10-16T02:51:39.065Z,70.90
2018-10-16T02:54:06.974Z,71.10
2018-10-16T02:56:34.813Z,70.80
2018-10-16T02:59:02.672Z,70.70
2018-10-16T03:01:30.562Z,70.80
2018-10-16T03:03:58.449Z,70.60
2018-10-16T03:06:26.365Z,70.40
2018-10-16T03:08:54.232Z,70.40
2018-10-16T03:11:22.127Z,70.20
2018-10-16T03:13:49.945Z,70.30
2018-10-16T03:16:17.864Z,70.30
2018-10-16T03:18:45.735Z,70.30
2018-10-16T03:21:13.594Z,70.40
2018-10-16T03:23:41.476Z,70.60
2018-10-16T03:26:09.395Z,70.90
2018-10-16T03:28:37.284Z,70.90
2018-10-16T03:31:05.205Z,70.90
2018-10-16T03:33:33.073Z,70.90
2018-10-16T03:36:00.933Z,70.90
2018-10-16T03:38:28.806Z,71.10
2018-10-16T03:40:56.695Z,71.40
2018-10-16T03:43:24.590Z,71.50
2018-10-16T03:45:52.534Z,71.50
2018-10-16T03:48:20.375Z,71.40
2018-10-16T03:50:48.397Z,71.50
2018-10-16T03:53:16.228Z,71.40
2018-10-16T03:55:44.118Z,71.80
2018-10-16T03:58:11.972Z,72.60
2018-10-16T04:00:39.848Z,71.90
2018-10-16T04:03:07.685Z,71.90
2018-10-16T04:05:35.572Z,72.00
2018-10-16T04:08:03.568Z,71.90
2018-10-16T04:10:31.485Z,71.80
2018-10-16T04:12:59.350Z,71.80
2018-10-16T04:15:27.314Z,72.00
2018-10-16T04:17:55.382Z,72.10
2018-10-16T04:20:23.356Z,72.20
2018-10-16T04:22:51.377Z,72.10
2018-10-16T04:25:19.281Z,72.30
2018-10-16T04:27:47.208Z,72.40
2018-10-16T04:30:15.169Z,72.40
2018-10-16T04:32:43.048Z,72.40
2018-10-16T04:35:15.972Z,72.30
2018-10-16T04:37:44.761Z,72.50
2018-10-16T04:40:12.941Z,72.70
2018-10-16T04:42:41.406Z,72.60
2018-10-16T04:45:10.633Z,72.80
2018-10-16T04:47:39.162Z,72.90
2018-10-16T04:50:07.705Z,73.10
2018-10-16T04:52:35.563Z,73.00
2018-10-16T04:55:03.637Z,72.90
2018-10-16T04:57:31.544Z,73.00
2018-10-16T04:59:59.473Z,73.30
2018-10-16T05:02:27.522Z,73.00
2018-10-16T05:04:55.373Z,73.00
2018-10-16T05:07:23.365Z,73.50
2018-10-16T05:09:51.246Z,73.60
2018-10-16T05:12:19.203Z,73.60
2018-10-16T05:14:47.082Z,73.50
2018-10-16T05:17:14.950Z,73.60
2018-10-16T05:19:42.812Z,73.50
2018-10-16T05:22:10.682Z,73.60
2018-10-16T05:24:38.647Z,73.30
2018-10-16T05:27:06.578Z,73.40
2018-10-16T05:29:34.513Z,73.10
2018-10-16T05:32:02.443Z,73.00
2018-10-16T05:34:30.530Z,73.00
2018-10-16T05:36:58.450Z,72.90
2018-10-16T05:39:26.346Z,72.70
2018-10-16T05:41:54.226Z,72.50
2018-10-16T05:44:22.116Z,72.50
2018-10-16T05:46:50.029Z,72.50
2018-10-16T05:49:17.938Z,72.30
2018-10-16T05:51:45.808Z,72.50
2018-10-16T05:54:13.702Z,72.80
2018-10-16T05:56:41.637Z,73.00
2018-10-16T05:59:09.513Z,73.10
2018-10-16T06:01:37.393Z,73.20
2018-10-16T06:04:05.395Z,73.30
2018-10-16T06:06:33.312Z,73.50
2018-10-16T06:09:01.232Z,73.60
2018-10-16T06:11:29.292Z,73.70
2018-10-16T06:13:57.252Z,74.10
2018-10-16T06:16:25.393Z,74.20
2018-10-16T06:18:53.272Z,74.50
2018-10-16T06:21:21.166Z,74.70
2018-10-16T06:23:49.078Z,74.80
2018-10-16T06:26:17.034Z,75.00
2018-10-16T06:28:45.045Z,75.20
2018-10-16T06:31:12.940Z,75.40
2018-10-16T06:33:40.913Z,75.60
2018-10-16T06:36:08.828Z,76.50
2018-10-16T06:38:36.746Z,76.00
2018-10-16T06:41:05.211Z,76.10
2018-10-16T06:43:33.014Z,76.20
2018-10-16T06:46:01.040Z,76.40
2018-10-16T06:48:29.238Z,76.50
2018-10-16T06:50:57.006Z,76.50
2018-10-16T06:53:25.061Z,76.60
2018-10-16T06:55:52.925Z,76.70
2018-10-16T06:58:20.881Z,76.80
2018-10-16T07:00:48.764Z,76.80
2018-10-16T07:03:16.615Z,76.80
2018-10-16T07:05:44.585Z,76.80
2018-10-16T07:08:12.485Z,77.30
2018-10-16T07:10:40.372Z,77.00
2018-10-16T07:13:08.252Z,77.70
2018-10-16T07:15:36.183Z,78.40
2018-10-16T07:18:05.148Z,77.90
2018-10-16T07:20:33.069Z,77.50
2018-10-16T07:23:01.006Z,78.00
2018-10-16T07:25:28.885Z,77.70
2018-10-16T07:27:56.792Z,78.90
2018-10-16T07:30:24.735Z,78.50
2018-10-16T07:32:52.673Z,78.00
2018-10-16T07:35:20.549Z,78.40
2018-10-16T07:37:48.458Z,78.40
2018-10-16T07:40:16.328Z,77.80
2018-10-16T07:42:44.178Z,77.80
2018-10-16T07:45:12.117Z,77.90
2018-10-16T07:47:39.928Z,77.70
2018-10-16T07:50:09.680Z,76.60
2018-10-16T07:52:37.592Z,76.90
2018-10-16T07:55:08.909Z,76.60
2018-10-16T07:57:36.822Z,77.10
2018-10-16T08:00:06.159Z,76.60
2018-10-16T08:02:34.202Z,76.50
2018-10-16T08:05:02.081Z,76.60
2018-10-16T08:07:30.020Z,76.40
2018-10-16T08:09:57.914Z,76.30
2018-10-16T08:12:25.861Z,76.20
2018-10-16T08:14:53.761Z,76.10
2018-10-16T08:17:21.746Z,76.30
2018-10-16T08:19:49.604Z,76.00
2018-10-16T08:22:18.357Z,76.60
2018-10-16T08:24:46.305Z,78.30
2018-10-16T08:27:14.208Z,78.60
2018-10-16T08:29:42.141Z,77.20
2018-10-16T08:32:09.992Z,77.70
2018-10-16T08:34:37.978Z,76.70
2018-10-16T08:37:08.024Z,76.40
2018-10-16T08:39:38.295Z,76.50
2018-10-16T08:42:45.434Z,76.80
2018-10-16T08:45:24.418Z,77.10
2018-10-16T08:48:03.564Z,75.70
2018-10-16T08:50:44.053Z,75.60
2018-10-16T08:53:11.929Z,75.60
2018-10-16T08:55:39.840Z,75.20
2018-10-16T08:58:10.188Z,74.90
2018-10-16T09:00:38.213Z,75.00
2018-10-16T09:03:06.909Z,74.80
2018-10-16T09:09:11.554Z,74.60
2018-10-16T09:11:41.363Z,73.30
2018-10-16T09:14:09.601Z,73.90
2018-10-16T09:16:37.454Z,73.40
2018-10-16T09:19:06.610Z,73.30
2018-10-16T09:21:34.518Z,72.30
2018-10-16T09:24:08.544Z,72.70
2018-10-16T09:26:36.545Z,72.00
2018-10-16T09:29:04.509Z,71.00
2018-10-16T09:31:32.442Z,70.60
2018-10-16T09:34:00.325Z,70.90
2018-10-16T09:36:28.267Z,70.00
2018-10-16T09:38:56.134Z,71.00
2018-10-16T09:41:24.034Z,69.60
2018-10-16T09:43:51.866Z,69.20
2018-10-16T09:46:19.767Z,69.80
2018-10-16T09:48:47.594Z,68.60
2018-10-16T09:51:15.499Z,69.60
2018-10-16T09:53:43.571Z,69.40
2018-10-16T09:56:11.625Z,69.80
2018-10-16T09:58:39.537Z,68.60
2018-10-16T10:01:13.021Z,69.50
2018-10-16T10:03:41.076Z,68.10
2018-10-16T10:06:08.948Z,69.30
2018-10-16T10:08:36.833Z,69.50
2018-10-16T10:11:05.040Z,69.70
2018-10-16T10:13:32.912Z,69.60
2018-10-16T10:16:00.768Z,69.30
2018-10-16T10:18:28.654Z,68.30
2018-10-16T10:20:56.548Z,68.60
2018-10-16T10:23:24.482Z,69.20
2018-10-16T10:25:52.504Z,68.80
2018-10-16T10:28:20.397Z,68.30
2018-10-16T10:30:48.275Z,68.30
2018-10-16T10:33:16.149Z,68.70
2018-10-16T10:35:44.043Z,68.80
2018-10-16T10:38:11.919Z,68.90
2018-10-16T10:40:39.877Z,66.80
2018-10-16T10:43:07.795Z,65.90
2018-10-16T10:45:35.719Z,66.40
2018-10-16T10:48:03.586Z,65.40
2018-10-16T10:50:31.774Z,64.30
2018-10-16T10:52:59.442Z,64.80
2018-10-16T10:55:27.357Z,65.40
2018-10-16T10:57:55.336Z,64.30
2018-10-16T11:00:23.313Z,65.70
2018-10-16T11:02:51.282Z,64.80
2018-10-16T11:05:19.163Z,63.30
2018-10-16T11:07:47.022Z,65.00
2018-10-16T11:10:14.996Z,64.60
2018-10-16T11:12:43.782Z,64.30
2018-10-16T11:15:11.768Z,63.90
2018-10-16T11:17:39.977Z,61.40
2018-10-16T11:20:09.726Z,63.90
2018-10-16T11:22:37.696Z,62.60
2018-10-16T11:25:06.795Z,63.40
2018-10-16T11:27:34.753Z,62.10
2018-10-16T11:30:02.655Z,61.80
2018-10-16T11:32:30.577Z,60.60
2018-10-16T11:34:58.455Z,62.00
2018-10-16T11:37:26.402Z,61.10
2018-10-16T11:39:54.289Z,57.80
2018-10-16T11:42:22.201Z,59.60
2018-10-16T11:44:50.071Z,60.50
2018-10-16T11:47:17.935Z,60.60
2018-10-16T11:49:45.917Z,60.00
2018-10-16T11:52:13.973Z,62.40
2018-10-16T11:54:41.841Z,61.50
2018-10-16T11:57:09.798Z,62.10
2018-10-16T11:59:37.728Z,59.20
2018-10-16T12:02:05.676Z,60.00
2018-10-16T12:04:33.567Z,58.50
2018-10-16T12:07:01.503Z,58.10
2018-10-16T12:09:29.330Z,58.40
2018-10-16T12:11:57.209Z,57.00
2018-10-16T12:14:25.081Z,58.30
2018-10-16T12:16:57.991Z,58.30
2018-10-16T12:19:31.264Z,56.90
2018-10-16T12:21:59.153Z,57.50
2018-10-16T12:24:27.008Z,59.10
2018-10-16T12:26:54.956Z,58.80
2018-10-16T12:29:22.786Z,59.70
2018-10-16T12:31:50.666Z,58.80
2018-10-16T12:34:18.543Z,59.10
2018-10-16T12:36:46.492Z,58.30
2018-10-16T12:39:14.498Z,58.10
2018-10-16T12:41:42.337Z,58.50
2018-10-16T12:44:10.322Z,58.30
2018-10-16T12:46:38.228Z,56.70
2018-10-16T12:49:06.128Z,58.00
2018-10-16T12:51:34.045Z,56.70
2018-10-16T12:54:04.483Z,55.80
2018-10-16T12:56:38.541Z,56.60
2018-10-16T12:59:07.218Z,56.60
2018-10-16T13:01:35.025Z,57.90
2018-10-16T13:04:02.869Z,58.40
2018-10-16T13:06:30.761Z,57.60
2018-10-16T13:08:58.630Z,58.10
2018-10-16T13:11:26.531Z,53.60
2018-10-16T13:13:54.484Z,54.10
2018-10-16T13:16:22.393Z,55.60
2018-10-16T13:18:50.362Z,54.20
2018-10-16T13:21:18.290Z,54.90
2018-10-16T13:23:46.227Z,56.30
2018-10-16T13:26:14.212Z,55.60
2018-10-16T13:28:42.024Z,54.30
2018-10-16T13:31:09.913Z,53.20
2018-10-16T13:33:37.799Z,52.70
2018-10-16T13:36:05.736Z,52.00
2018-10-16T13:38:33.626Z,55.10
2018-10-16T13:41:01.534Z,54.80
2018-10-16T13:43:29.398Z,55.40
2018-10-16T13:45:57.306Z,56.30
2018-10-16T13:48:25.254Z,55.60
2018-10-16T13:50:53.081Z,55.10
2018-10-16T13:53:20.993Z,54.80
2018-10-16T13:55:48.870Z,54.60
2018-10-16T13:58:16.742Z,51.50
2018-10-16T14:00:44.657Z,51.30
2018-10-16T14:03:12.529Z,48.30
2018-10-16T14:05:40.506Z,48.20
2018-10-16T14:08:08.454Z,49.00
2018-10-16T14:10:36.324Z,48.80
2018-10-16T14:13:05.093Z,49.40
2018-10-16T14:15:32.989Z,49.20
2018-10-16T14:18:01.961Z,48.60
2018-10-16T14:20:29.848Z,49.10
2018-10-16T14:22:57.741Z,48.70
2018-10-16T14:25:25.634Z,49.10
2018-10-16T14:27:53.553Z,48.90
2018-10-16T14:30:21.389Z,48.20
2018-10-16T14:32:49.310Z,47.20
2018-10-16T14:35:17.218Z,47.70
2018-10-16T14:37:45.180Z,48.10
2018-10-16T14:40:14.500Z,47.00
2018-10-16T14:42:42.874Z,46.90
2018-10-16T14:45:11.597Z,46.10
2018-10-16T14:47:39.451Z,45.30
2018-10-16T14:50:08.092Z,44.60
2018-10-16T14:52:35.965Z,45.10
2018-10-16T14:55:04.832Z,44.80
2018-10-16T14:57:32.684Z,43.30
2018-10-16T15:00:00.846Z,43.50
2018-10-16T15:02:28.728Z,43.40
2018-10-16T15:04:56.681Z,42.70
2018-10-16T15:07:24.616Z,41.80
2018-10-16T15:09:52.554Z,42.30
2018-10-16T15:12:24.880Z,41.90
2018-10-16T15:14:53.633Z,42.80
2018-10-16T15:17:22.979Z,42.40
2018-10-16T15:19:57.743Z,42.40
2018-10-16T15:22:25.895Z,42.90
2018-10-16T15:24:53.813Z,43.50
2018-10-16T15:27:22.158Z,43.60
2018-10-16T15:29:50.090Z,43.90
2018-10-16T15:32:18.002Z,44.10
2018-10-16T15:34:46.903Z,44.30
2018-10-16T15:37:15.077Z,44.40
2018-10-16T15:39:42.937Z,44.60
2018-10-16T15:42:10.874Z,45.10
2018-10-16T15:44:38.831Z,45.10
2018-10-16T15:47:06.800Z,45.20
2018-10-16T15:49:35.020Z,45.40
2018-10-16T15:52:02.965Z,45.60
2018-10-16T15:54:30.828Z,45.60
2018-10-16T15:59:26.607Z,45.40
2018-10-16T16:01:54.501Z,45.80
2018-10-16T16:04:22.409Z,46.00
2018-10-16T16:06:50.344Z,46.00
2018-10-16T16:09:18.180Z,46.10
2018-10-16T16:11:46.221Z,46.50
2018-10-16T16:14:14.139Z,46.80
2018-10-16T16:16:42.084Z,47.10
2018-10-16T16:19:10.008Z,47.50
2018-10-16T16:21:37.841Z,47.70
2018-10-16T16:24:05.768Z,48.00
2018-10-16T16:26:33.579Z,48.30
2018-10-16T16:29:01.444Z,48.30
2018-10-16T16:31:29.361Z,48.60
2018-10-16T16:33:57.335Z,48.80
2018-10-16T16:36:25.153Z,49.20
2018-10-16T16:38:53.000Z,49.60
2018-10-16T16:41:21.516Z,49.50
2018-10-16T16:43:49.477Z,49.90
2018-10-16T16:46:17.292Z,51.00
2018-10-16T16:48:45.254Z,50.60
2018-10-16T16:51:13.220Z,50.60
2018-10-16T16:53:41.031Z,50.60
2018-10-16T16:56:08.954Z,50.90
2018-10-16T16:58:36.955Z,51.10
2018-10-16T17:01:05.085Z,51.30
2018-10-16T17:03:33.021Z,51.60
2018-10-16T17:06:00.929Z,51.70
2018-10-16T17:08:28.827Z,51.90
2018-10-16T17:10:56.706Z,52.20
2018-10-16T17:13:24.573Z,52.90
2018-10-16T17:15:52.502Z,53.20
2018-10-16T17:18:27.023Z,53.90
2018-10-16T17:20:54.942Z,54.60
2018-10-16T17:23:22.808Z,57.50
2018-10-16T17:25:50.952Z,57.40
2018-10-16T17:28:18.669Z,56.20
2018-10-16T17:30:46.588Z,56.80
2018-10-16T17:33:14.527Z,57.40
2018-10-16T17:35:42.364Z,57.70
2018-10-16T17:38:10.298Z,57.30
2018-10-16T17:40:38.212Z,57.00
2018-10-16T17:43:06.114Z,56.60
2018-10-16T17:45:34.032Z,56.40
2018-10-16T17:48:02.013Z,56.60
2018-10-16T17:50:29.901Z,56.50
2018-10-16T17:52:57.813Z,56.70
2018-10-16T17:55:25.721Z,56.90
2018-10-16T17:57:53.624Z,56.90
2018-10-16T18:00:21.541Z,57.30
2018-10-16T18:02:49.377Z,57.50
2018-10-16T18:05:17.989Z,57.50
2018-10-16T18:07:45.949Z,57.50
2018-10-16T18:10:13.909Z,57.50
2018-10-16T18:12:41.829Z,57.50
2018-10-16T18:15:11.426Z,57.70
2018-10-16T18:17:40.094Z,57.90
2018-10-16T18:20:09.469Z,58.30
2018-10-16T18:22:37.432Z,58.30
2018-10-16T18:25:06.257Z,58.40
2018-10-16T18:27:34.121Z,58.50
2018-10-16T18:30:02.278Z,58.60
2018-10-16T18:32:30.155Z,59.10
2018-10-16T18:34:58.143Z,58.80
2018-10-16T18:37:25.978Z,59.10
2018-10-16T18:39:53.905Z,59.20
2018-10-16T18:42:21.783Z,59.30
2018-10-16T18:44:49.651Z,59.60
2018-10-16T18:47:17.550Z,59.60
2018-10-16T18:49:45.528Z,59.70
2018-10-16T18:52:13.381Z,60.00
2018-10-16T18:54:41.250Z,60.20
2018-10-16T18:57:09.166Z,59.90
2018-10-16T18:59:37.074Z,60.00
2018-10-16T19:02:05.099Z,60.20
2018-10-16T19:04:33.070Z,60.40
2018-10-16T19:07:01.384Z,60.40
2018-10-16T19:09:29.263Z,60.80
2018-10-16T19:11:57.122Z,60.80
2018-10-16T19:14:25.013Z,61.30
2018-10-16T19:16:52.881Z,61.30
2018-10-16T19:19:20.750Z,61.20
2018-10-16T19:21:48.621Z,61.50
2018-10-16T19:24:16.488Z,61.10
2018-10-16T19:26:44.393Z,60.60
2018-10-16T19:29:12.290Z,61.20
2018-10-16T19:31:40.173Z,61.20
2018-10-16T19:34:08.077Z,61.40
2018-10-16T19:36:35.937Z,63.50
2018-10-16T19:39:06.162Z,62.20
2018-10-16T19:41:34.061Z,62.00
2018-10-16T19:44:01.972Z,62.00
2018-10-16T19:46:29.873Z,62.30
2018-10-16T19:48:57.777Z,62.50
2018-10-16T19:51:25.633Z,62.70
2018-10-16T19:53:53.577Z,62.60
2018-10-16T19:56:21.621Z,62.60
2018-10-16T19:58:49.537Z,62.50
2018-10-16T20:01:17.450Z,62.60
2018-10-16T20:03:45.408Z,63.10
2018-10-16T20:06:13.393Z,63.10
2018-10-16T20:08:41.425Z,62.80
2018-10-16T20:11:09.584Z,62.70
2018-10-16T20:13:37.491Z,62.80
2018-10-16T20:16:05.356Z,63.20
2018-10-16T20:18:33.276Z,63.50
2018-10-16T20:21:01.167Z,63.90
2018-10-16T20:23:29.033Z,63.60
2018-10-16T20:25:57.190Z,63.60
2018-10-16T20:28:25.156Z,63.70
2018-10-16T20:30:53.147Z,63.70
2018-10-16T20:33:21.184Z,63.80
2018-10-16T20:35:49.289Z,64.30
2018-10-16T20:38:17.364Z,64.50
2018-10-16T20:40:45.439Z,64.70
2018-10-16T20:43:13.565Z,64.90
2018-10-16T20:45:41.713Z,65.10
2018-10-16T20:48:09.629Z,65.20
2018-10-16T20:50:37.609Z,65.20
2018-10-16T20:53:05.993Z,65.70
2018-10-16T20:55:34.121Z,65.70
2018-10-16T20:58:02.446Z,65.70
2018-10-16T21:00:30.448Z,65.80
2018-10-16T21:02:58.458Z,65.70
2018-10-16T21:05:26.356Z,65.90
2018-10-16T21:07:54.230Z,66.30
2018-10-16T21:10:22.072Z,66.50
2018-10-16T21:12:49.901Z,66.90
2018-10-16T21:15:17.772Z,67.10
2018-10-16T21:17:45.649Z,67.40
2018-10-16T21:20:13.593Z,67.40
2018-10-16T21:22:41.426Z,67.60
2018-10-16T21:25:09.861Z,67.50
2018-10-16T21:27:37.668Z,67.50
2018-10-16T21:30:07.254Z,67.70
2018-10-16T21:32:35.101Z,68.40
2018-10-16T21:35:03.038Z,68.50
2018-10-16T21:37:30.893Z,68.60
2018-10-16T21:39:58.972Z,68.50
2018-10-16T21:42:26.881Z,68.90
2018-10-16T21:44:54.741Z,70.00
2018-10-16T21:47:22.601Z,69.20
2018-10-16T21:49:50.477Z,69.30
2018-10-16T21:52:18.418Z,69.50
2018-10-16T21:54:46.248Z,69.80
2018-10-16T21:57:14.185Z,70.10
2018-10-16T21:59:42.196Z,70.00
2018-10-16T22:02:15.561Z,69.80
2018-10-16T22:04:43.457Z,70.00
2018-10-16T22:07:11.437Z,70.30
2018-10-16T22:09:39.252Z,70.40
2018-10-16T22:12:07.113Z,70.20
2018-10-16T22:14:34.973Z,70.40
2018-10-16T22:17:02.851Z,70.70
2018-10-16T22:19:30.693Z,71.60
2018-10-16T22:21:58.540Z,70.80
2018-10-16T22:24:26.400Z,73.80
2018-10-16T22:26:54.249Z,72.90
2018-10-16T22:29:22.133Z,73.90
2018-10-16T22:31:50.109Z,75.30
2018-10-16T22:34:17.998Z,77.30
2018-10-16T22:36:45.885Z,76.50
2018-10-16T22:39:13.731Z,74.60
2018-10-16T22:41:41.618Z,74.80
2018-10-16T22:44:09.562Z,74.90
2018-10-16T22:46:37.473Z,74.60
2018-10-16T22:49:05.645Z,74.60
2018-10-16T22:51:33.593Z,74.50
2018-10-16T22:54:07.815Z,73.90
2018-10-16T22:56:36.209Z,74.10
2018-10-16T22:59:04.199Z,74.50
2018-10-16T23:01:32.041Z,74.90
2018-10-16T23:03:59.942Z,73.90
2018-10-16T23:06:27.779Z,74.60
2018-10-16T23:08:55.601Z,73.90
2018-10-16T23:11:23.516Z,73.80
2018-10-16T23:13:51.328Z,74.00
2018-10-16T23:16:19.257Z,74.20
2018-10-16T23:18:47.121Z,74.40
2018-10-16T23:21:14.993Z,74.30
2018-10-16T23:23:42.864Z,74.40
2018-10-16T23:26:10.741Z,74.20
2018-10-16T23:28:38.625Z,74.10
2018-10-16T23:31:06.614Z,73.70
2018-10-16T23:33:34.789Z,73.50
2018-10-16T23:36:02.697Z,73.20
2018-10-16T23:38:30.585Z,73.00
2018-10-16T23:40:58.523Z,73.10
2018-10-16T23:43:26.481Z,73.30
2018-10-16T23:46:00.897Z,74.00
2018-10-16T23:48:28.781Z,73.20
2018-10-16T23:50:56.666Z,73.20
2018-10-16T23:53:24.481Z,73.70
2018-10-16T23:55:52.353Z,73.60
2018-10-16T23:58:20.190Z,73.60
